LAX weather

Los Angeles International Airport
Los Angeles, California, United States

Public forecast

Using degrees Fahrenheit for public forecast. Weather courtesy of forecast.io.

Current aviation weather report (METAR) for Los Angeles International Airport

Retrieved 2020/01/23 09:53 UTC (40 minutes ago):

KLAX 230953Z 00000KT 10SM FEW009 12/09 A3014 RMK AO2 SLP203 T01220089

Aviation forecast (TAF) for Los Angeles International Airport

Retrieved 2020/01/23 06:54 UTC (4 hours ago):

TAF KLAX 230551Z 2306/2412 VRB03KT P6SM SCT200 FM231900 26010KT P6SM SCT200 FM240400 VRB03KT P6SM SKC